sensor_id;sensor_type;location;lat;lon;timestamp;P1;durP1;ratioP1;P2;durP2;ratioP2
59066;SDS011;44854;50.838;4.438;2024-01-30T00:01:51;7.90;;;6.03;;
59066;SDS011;44854;50.838;4.438;2024-01-30T00:04:18;8.20;;;6.47;;
59066;SDS011;44854;50.838;4.438;2024-01-30T00:06:44;10.45;;;6.70;;
59066;SDS011;44854;50.838;4.438;2024-01-30T00:09:10;9.57;;;6.60;;
59066;SDS011;44854;50.838;4.438;2024-01-30T00:11:38;9.50;;;6.47;;
59066;SDS011;44854;50.838;4.438;2024-01-30T00:14:04;11.18;;;5.72;;
59066;SDS011;44854;50.838;4.438;2024-01-30T00:16:30;11.35;;;5.90;;
59066;SDS011;44854;50.838;4.438;2024-01-30T00:18:59;9.60;;;5.93;;
59066;SDS011;44854;50.838;4.438;2024-01-30T00:23:54;9.82;;;6.43;;
59066;SDS011;44854;50.838;4.438;2024-01-30T00:26:20;10.80;;;5.85;;
59066;SDS011;44854;50.838;4.438;2024-01-30T00:28:45;10.63;;;7.05;;
59066;SDS011;44854;50.838;4.438;2024-01-30T00:31:11;13.55;;;6.63;;
59066;SDS011;44854;50.838;4.438;2024-01-30T00:33:40;6.72;;;5.25;;
59066;SDS011;44854;50.838;4.438;2024-01-30T00:36:07;8.55;;;6.05;;
59066;SDS011;44854;50.838;4.438;2024-01-30T00:38:33;11.45;;;6.32;;
59066;SDS011;44854;50.838;4.438;2024-01-30T00:41:00;7.20;;;5.88;;
59066;SDS011;44854;50.838;4.438;2024-01-30T00:43:31;8.07;;;6.32;;
59066;SDS011;44854;50.838;4.438;2024-01-30T00:45:56;12.82;;;5.68;;
59066;SDS011;44854;50.838;4.438;2024-01-30T00:48:23;10.73;;;5.57;;
59066;SDS011;44854;50.838;4.438;2024-01-30T00:50:48;10.60;;;6.53;;
59066;SDS011;44854;50.838;4.438;2024-01-30T00:53:14;9.10;;;5.55;;
59066;SDS011;44854;50.838;4.438;2024-01-30T00:55:46;8.05;;;5.88;;
59066;SDS011;44854;50.838;4.438;2024-01-30T00:58:11;9.77;;;6.15;;
59066;SDS011;44854;50.838;4.438;2024-01-30T01:00:37;9.95;;;5.78;;
59066;SDS011;44854;50.838;4.438;2024-01-30T01:03:03;10.43;;;6.18;;
59066;SDS011;44854;50.838;4.438;2024-01-30T01:05:29;11.90;;;6.25;;
59066;SDS011;44854;50.838;4.438;2024-01-30T01:07:55;9.38;;;6.72;;
59066;SDS011;44854;50.838;4.438;2024-01-30T01:10:21;10.98;;;5.97;;
59066;SDS011;44854;50.838;4.438;2024-01-30T01:12:48;7.03;;;5.60;;
59066;SDS011;44854;50.838;4.438;2024-01-30T01:15:14;10.32;;;6.28;;
59066;SDS011;44854;50.838;4.438;2024-01-30T01:17:40;9.80;;;6.07;;
59066;SDS011;44854;50.838;4.438;2024-01-30T01:20:06;7.47;;;5.30;;
59066;SDS011;44854;50.838;4.438;2024-01-30T01:22:33;7.97;;;5.60;;
59066;SDS011;44854;50.838;4.438;2024-01-30T01:24:59;12.30;;;5.57;;
59066;SDS011;44854;50.838;4.438;2024-01-30T01:27:25;8.80;;;5.38;;
59066;SDS011;44854;50.838;4.438;2024-01-30T01:29:52;8.73;;;5.80;;
59066;SDS011;44854;50.838;4.438;2024-01-30T01:32:18;9.32;;;6.50;;
59066;SDS011;44854;50.838;4.438;2024-01-30T01:34:44;11.52;;;5.65;;
59066;SDS011;44854;50.838;4.438;2024-01-30T01:37:10;8.57;;;5.88;;
59066;SDS011;44854;50.838;4.438;2024-01-30T01:39:36;8.77;;;6.18;;
59066;SDS011;44854;50.838;4.438;2024-01-30T01:42:02;10.88;;;6.05;;
59066;SDS011;44854;50.838;4.438;2024-01-30T01:44:28;8.00;;;5.38;;
59066;SDS011;44854;50.838;4.438;2024-01-30T01:46:54;11.35;;;6.18;;
59066;SDS011;44854;50.838;4.438;2024-01-30T01:49:20;9.68;;;5.60;;
59066;SDS011;44854;50.838;4.438;2024-01-30T01:51:48;9.48;;;5.57;;
59066;SDS011;44854;50.838;4.438;2024-01-30T01:54:15;9.20;;;5.75;;
59066;SDS011;44854;50.838;4.438;2024-01-30T01:56:42;9.23;;;5.55;;
59066;SDS011;44854;50.838;4.438;2024-01-30T01:59:08;10.45;;;5.60;;
59066;SDS011;44854;50.838;4.438;2024-01-30T02:01:37;11.43;;;6.28;;
59066;SDS011;44854;50.838;4.438;2024-01-30T02:04:03;11.75;;;5.82;;
59066;SDS011;44854;50.838;4.438;2024-01-30T02:06:30;9.32;;;5.15;;
59066;SDS011;44854;50.838;4.438;2024-01-30T02:08:57;8.57;;;5.60;;
59066;SDS011;44854;50.838;4.438;2024-01-30T02:11:22;8.68;;;5.70;;
59066;SDS011;44854;50.838;4.438;2024-01-30T02:13:49;9.40;;;5.93;;
59066;SDS011;44854;50.838;4.438;2024-01-30T02:16:15;10.95;;;6.05;;
59066;SDS011;44854;50.838;4.438;2024-01-30T02:18:42;7.35;;;5.38;;
59066;SDS011;44854;50.838;4.438;2024-01-30T02:21:11;10.70;;;6.13;;
59066;SDS011;44854;50.838;4.438;2024-01-30T02:23:37;9.80;;;5.95;;
59066;SDS011;44854;50.838;4.438;2024-01-30T02:26:04;10.48;;;5.72;;
59066;SDS011;44854;50.838;4.438;2024-01-30T02:28:30;8.63;;;5.20;;
59066;SDS011;44854;50.838;4.438;2024-01-30T02:30:56;9.75;;;6.15;;
59066;SDS011;44854;50.838;4.438;2024-01-30T02:33:21;6.35;;;5.07;;
59066;SDS011;44854;50.838;4.438;2024-01-30T02:35:48;11.05;;;5.88;;
59066;SDS011;44854;50.838;4.438;2024-01-30T02:38:15;9.77;;;5.70;;
59066;SDS011;44854;50.838;4.438;2024-01-30T02:40:41;8.63;;;5.78;;
59066;SDS011;44854;50.838;4.438;2024-01-30T02:43:06;6.78;;;4.88;;
59066;SDS011;44854;50.838;4.438;2024-01-30T02:45:33;10.20;;;5.22;;
59066;SDS011;44854;50.838;4.438;2024-01-30T02:47:59;11.32;;;6.13;;
59066;SDS011;44854;50.838;4.438;2024-01-30T02:50:25;9.00;;;5.72;;
59066;SDS011;44854;50.838;4.438;2024-01-30T02:52:50;10.63;;;5.85;;
59066;SDS011;44854;50.838;4.438;2024-01-30T02:55:16;7.75;;;5.45;;
59066;SDS011;44854;50.838;4.438;2024-01-30T02:57:44;8.93;;;5.53;;
59066;SDS011;44854;50.838;4.438;2024-01-30T03:00:10;11.48;;;5.82;;
59066;SDS011;44854;50.838;4.438;2024-01-30T03:02:37;6.25;;;5.40;;
59066;SDS011;44854;50.838;4.438;2024-01-30T03:05:03;9.23;;;5.30;;
59066;SDS011;44854;50.838;4.438;2024-01-30T03:09:56;11.55;;;5.60;;
59066;SDS011;44854;50.838;4.438;2024-01-30T03:12:23;9.52;;;5.43;;
59066;SDS011;44854;50.838;4.438;2024-01-30T03:14:48;12.43;;;5.40;;
59066;SDS011;44854;50.838;4.438;2024-01-30T03:17:17;9.00;;;5.38;;
59066;SDS011;44854;50.838;4.438;2024-01-30T03:19:43;9.60;;;5.68;;
59066;SDS011;44854;50.838;4.438;2024-01-30T03:22:09;9.57;;;5.25;;
59066;SDS011;44854;50.838;4.438;2024-01-30T03:24:34;11.63;;;5.30;;
59066;SDS011;44854;50.838;4.438;2024-01-30T03:27:00;8.65;;;5.32;;
59066;SDS011;44854;50.838;4.438;2024-01-30T03:29:26;8.90;;;5.28;;
59066;SDS011;44854;50.838;4.438;2024-01-30T03:31:52;7.30;;;4.75;;
59066;SDS011;44854;50.838;4.438;2024-01-30T03:34:17;10.40;;;5.65;;
59066;SDS011;44854;50.838;4.438;2024-01-30T03:36:43;8.02;;;5.32;;
59066;SDS011;44854;50.838;4.438;2024-01-30T03:39:09;10.13;;;5.28;;
59066;SDS011;44854;50.838;4.438;2024-01-30T03:41:34;10.98;;;5.60;;
59066;SDS011;44854;50.838;4.438;2024-01-30T03:44:00;7.55;;;4.90;;
59066;SDS011;44854;50.838;4.438;2024-01-30T03:46:26;10.20;;;5.15;;
59066;SDS011;44854;50.838;4.438;2024-01-30T03:48:52;11.18;;;5.18;;
59066;SDS011;44854;50.838;4.438;2024-01-30T03:51:18;16.73;;;6.22;;
59066;SDS011;44854;50.838;4.438;2024-01-30T03:53:45;9.90;;;5.47;;
59066;SDS011;44854;50.838;4.438;2024-01-30T03:56:13;11.95;;;5.53;;
59066;SDS011;44854;50.838;4.438;2024-01-30T03:58:39;8.30;;;5.13;;
59066;SDS011;44854;50.838;4.438;2024-01-30T04:01:05;14.70;;;5.65;;
59066;SDS011;44854;50.838;4.438;2024-01-30T04:03:30;9.70;;;5.38;;
59066;SDS011;44854;50.838;4.438;2024-01-30T04:05:56;9.25;;;5.45;;
59066;SDS011;44854;50.838;4.438;2024-01-30T04:08:22;10.50;;;5.85;;
59066;SDS011;44854;50.838;4.438;2024-01-30T04:10:47;10.88;;;5.45;;
59066;SDS011;44854;50.838;4.438;2024-01-30T04:13:13;8.52;;;5.38;;
59066;SDS011;44854;50.838;4.438;2024-01-30T04:15:39;12.30;;;5.45;;
59066;SDS011;44854;50.838;4.438;2024-01-30T04:18:04;10.43;;;6.03;;
59066;SDS011;44854;50.838;4.438;2024-01-30T04:20:30;8.10;;;5.65;;
59066;SDS011;44854;50.838;4.438;2024-01-30T04:22:56;7.88;;;5.50;;
59066;SDS011;44854;50.838;4.438;2024-01-30T04:25:22;11.15;;;5.88;;
59066;SDS011;44854;50.838;4.438;2024-01-30T04:27:48;9.77;;;5.68;;
59066;SDS011;44854;50.838;4.438;2024-01-30T04:30:13;7.50;;;5.35;;
59066;SDS011;44854;50.838;4.438;2024-01-30T04:32:39;11.32;;;5.88;;
59066;SDS011;44854;50.838;4.438;2024-01-30T04:35:05;9.90;;;5.85;;
59066;SDS011;44854;50.838;4.438;2024-01-30T04:37:31;8.68;;;5.78;;
59066;SDS011;44854;50.838;4.438;2024-01-30T04:39:57;13.15;;;6.57;;
59066;SDS011;44854;50.838;4.438;2024-01-30T04:42:22;9.43;;;5.35;;
59066;SDS011;44854;50.838;4.438;2024-01-30T04:44:48;9.73;;;5.45;;
59066;SDS011;44854;50.838;4.438;2024-01-30T04:47:14;10.27;;;6.13;;
59066;SDS011;44854;50.838;4.438;2024-01-30T04:49:40;9.60;;;6.05;;
59066;SDS011;44854;50.838;4.438;2024-01-30T04:52:06;9.25;;;6.03;;
59066;SDS011;44854;50.838;4.438;2024-01-30T04:54:32;10.60;;;6.10;;
59066;SDS011;44854;50.838;4.438;2024-01-30T04:56:59;10.40;;;5.87;;
59066;SDS011;44854;50.838;4.438;2024-01-30T04:59:25;10.73;;;5.90;;
59066;SDS011;44854;50.838;4.438;2024-01-30T05:01:51;8.25;;;6.05;;
59066;SDS011;44854;50.838;4.438;2024-01-30T05:04:16;8.63;;;5.97;;
59066;SDS011;44854;50.838;4.438;2024-01-30T05:06:42;11.57;;;6.18;;
59066;SDS011;44854;50.838;4.438;2024-01-30T05:09:08;13.02;;;6.43;;
59066;SDS011;44854;50.838;4.438;2024-01-30T05:11:37;9.02;;;5.80;;
59066;SDS011;44854;50.838;4.438;2024-01-30T05:14:06;10.80;;;6.60;;
59066;SDS011;44854;50.838;4.438;2024-01-30T05:16:32;9.95;;;6.20;;
59066;SDS011;44854;50.838;4.438;2024-01-30T05:18:58;17.17;;;6.60;;
59066;SDS011;44854;50.838;4.438;2024-01-30T05:21:24;9.85;;;6.72;;
59066;SDS011;44854;50.838;4.438;2024-01-30T05:23:49;10.85;;;5.80;;
59066;SDS011;44854;50.838;4.438;2024-01-30T05:26:15;9.05;;;6.10;;
59066;SDS011;44854;50.838;4.438;2024-01-30T05:28:41;9.63;;;6.35;;
59066;SDS011;44854;50.838;4.438;2024-01-30T05:31:07;12.02;;;6.70;;
59066;SDS011;44854;50.838;4.438;2024-01-30T05:33:33;9.20;;;5.90;;
59066;SDS011;44854;50.838;4.438;2024-01-30T05:35:59;7.57;;;5.47;;
59066;SDS011;44854;50.838;4.438;2024-01-30T05:38:24;13.10;;;6.13;;
59066;SDS011;44854;50.838;4.438;2024-01-30T05:40:50;14.57;;;6.25;;
59066;SDS011;44854;50.838;4.438;2024-01-30T05:43:16;12.80;;;9.50;;
59066;SDS011;44854;50.838;4.438;2024-01-30T05:45:41;14.00;;;6.78;;
59066;SDS011;44854;50.838;4.438;2024-01-30T05:48:07;11.48;;;5.80;;
59066;SDS011;44854;50.838;4.438;2024-01-30T05:50:33;11.50;;;6.30;;
59066;SDS011;44854;50.838;4.438;2024-01-30T05:52:58;11.38;;;6.80;;
59066;SDS011;44854;50.838;4.438;2024-01-30T05:55:24;13.85;;;6.22;;
59066;SDS011;44854;50.838;4.438;2024-01-30T05:57:50;15.48;;;6.32;;
59066;SDS011;44854;50.838;4.438;2024-01-30T06:00:17;14.65;;;5.65;;
59066;SDS011;44854;50.838;4.438;2024-01-30T06:02:43;11.95;;;5.95;;
59066;SDS011;44854;50.838;4.438;2024-01-30T06:05:09;9.00;;;5.95;;
59066;SDS011;44854;50.838;4.438;2024-01-30T06:07:34;10.18;;;6.38;;
59066;SDS011;44854;50.838;4.438;2024-01-30T06:10:00;10.68;;;6.32;;
59066;SDS011;44854;50.838;4.438;2024-01-30T06:12:27;11.32;;;6.13;;
59066;SDS011;44854;50.838;4.438;2024-01-30T06:14:53;9.57;;;6.88;;
59066;SDS011;44854;50.838;4.438;2024-01-30T06:17:21;9.40;;;6.18;;
59066;SDS011;44854;50.838;4.438;2024-01-30T06:19:50;11.35;;;6.55;;
59066;SDS011;44854;50.838;4.438;2024-01-30T06:22:16;13.00;;;7.35;;
59066;SDS011;44854;50.838;4.438;2024-01-30T06:24:42;11.65;;;7.30;;
59066;SDS011;44854;50.838;4.438;2024-01-30T06:29:35;12.98;;;6.78;;
59066;SDS011;44854;50.838;4.438;2024-01-30T06:32:01;13.95;;;6.45;;
59066;SDS011;44854;50.838;4.438;2024-01-30T06:34:28;11.55;;;6.97;;
59066;SDS011;44854;50.838;4.438;2024-01-30T06:36:54;12.27;;;6.55;;
59066;SDS011;44854;50.838;4.438;2024-01-30T06:39:20;12.88;;;6.20;;
59066;SDS011;44854;50.838;4.438;2024-01-30T06:41:46;9.68;;;6.97;;
59066;SDS011;44854;50.838;4.438;2024-01-30T06:44:12;10.88;;;7.03;;
59066;SDS011;44854;50.838;4.438;2024-01-30T06:46:38;9.85;;;6.68;;
59066;SDS011;44854;50.838;4.438;2024-01-30T06:49:04;13.57;;;7.60;;
59066;SDS011;44854;50.838;4.438;2024-01-30T06:51:30;8.57;;;6.45;;
59066;SDS011;44854;50.838;4.438;2024-01-30T06:53:56;13.07;;;6.65;;
59066;SDS011;44854;50.838;4.438;2024-01-30T06:56:21;13.65;;;7.10;;
59066;SDS011;44854;50.838;4.438;2024-01-30T06:58:50;14.00;;;7.28;;
59066;SDS011;44854;50.838;4.438;2024-01-30T07:01:16;12.68;;;6.90;;
59066;SDS011;44854;50.838;4.438;2024-01-30T07:03:42;16.58;;;7.45;;
59066;SDS011;44854;50.838;4.438;2024-01-30T07:06:08;15.30;;;8.63;;
59066;SDS011;44854;50.838;4.438;2024-01-30T07:08:34;13.02;;;7.25;;
59066;SDS011;44854;50.838;4.438;2024-01-30T07:11:00;9.90;;;7.03;;
59066;SDS011;44854;50.838;4.438;2024-01-30T07:13:26;13.50;;;7.28;;
59066;SDS011;44854;50.838;4.438;2024-01-30T07:15:53;12.00;;;6.72;;
59066;SDS011;44854;50.838;4.438;2024-01-30T07:18:18;14.73;;;8.07;;
59066;SDS011;44854;50.838;4.438;2024-01-30T07:20:44;18.40;;;8.18;;
59066;SDS011;44854;50.838;4.438;2024-01-30T07:23:14;13.48;;;7.05;;
59066;SDS011;44854;50.838;4.438;2024-01-30T07:25:42;13.80;;;8.10;;
59066;SDS011;44854;50.838;4.438;2024-01-30T07:28:11;13.48;;;8.00;;
59066;SDS011;44854;50.838;4.438;2024-01-30T07:30:41;14.25;;;7.70;;
59066;SDS011;44854;50.838;4.438;2024-01-30T07:33:07;10.73;;;7.03;;
59066;SDS011;44854;50.838;4.438;2024-01-30T07:35:33;12.75;;;7.00;;
59066;SDS011;44854;50.838;4.438;2024-01-30T07:38:00;17.23;;;7.30;;
59066;SDS011;44854;50.838;4.438;2024-01-30T07:40:25;17.60;;;7.53;;
59066;SDS011;44854;50.838;4.438;2024-01-30T07:42:53;11.48;;;7.43;;
59066;SDS011;44854;50.838;4.438;2024-01-30T07:45:19;13.55;;;7.65;;
59066;SDS011;44854;50.838;4.438;2024-01-30T07:47:49;19.65;;;7.60;;
59066;SDS011;44854;50.838;4.438;2024-01-30T07:50:15;15.55;;;7.30;;
59066;SDS011;44854;50.838;4.438;2024-01-30T07:52:42;13.93;;;7.65;;
59066;SDS011;44854;50.838;4.438;2024-01-30T07:55:08;12.60;;;7.88;;
59066;SDS011;44854;50.838;4.438;2024-01-30T07:57:34;20.35;;;8.20;;
59066;SDS011;44854;50.838;4.438;2024-01-30T08:00:00;18.00;;;8.00;;
59066;SDS011;44854;50.838;4.438;2024-01-30T08:02:27;16.48;;;7.47;;
59066;SDS011;44854;50.838;4.438;2024-01-30T08:04:53;15.27;;;7.07;;
59066;SDS011;44854;50.838;4.438;2024-01-30T08:07:19;22.00;;;8.00;;
59066;SDS011;44854;50.838;4.438;2024-01-30T08:12:12;16.35;;;6.95;;
59066;SDS011;44854;50.838;4.438;2024-01-30T08:14:38;14.30;;;7.55;;
59066;SDS011;44854;50.838;4.438;2024-01-30T08:17:07;15.43;;;8.20;;
59066;SDS011;44854;50.838;4.438;2024-01-30T08:19:33;16.45;;;7.57;;
59066;SDS011;44854;50.838;4.438;2024-01-30T08:21:58;13.00;;;7.78;;
59066;SDS011;44854;50.838;4.438;2024-01-30T08:24:24;22.33;;;9.30;;
59066;SDS011;44854;50.838;4.438;2024-01-30T08:26:50;15.63;;;7.82;;
59066;SDS011;44854;50.838;4.438;2024-01-30T08:29:16;19.88;;;8.23;;
59066;SDS011;44854;50.838;4.438;2024-01-30T08:31:43;15.25;;;8.23;;
59066;SDS011;44854;50.838;4.438;2024-01-30T08:34:10;17.23;;;7.97;;
59066;SDS011;44854;50.838;4.438;2024-01-30T08:36:36;17.83;;;8.27;;
59066;SDS011;44854;50.838;4.438;2024-01-30T08:39:02;17.80;;;7.93;;
59066;SDS011;44854;50.838;4.438;2024-01-30T08:41:28;19.65;;;8.15;;
59066;SDS011;44854;50.838;4.438;2024-01-30T08:43:53;19.90;;;7.88;;
59066;SDS011;44854;50.838;4.438;2024-01-30T08:46:19;19.38;;;8.93;;
59066;SDS011;44854;50.838;4.438;2024-01-30T08:48:45;20.30;;;8.63;;
59066;SDS011;44854;50.838;4.438;2024-01-30T08:51:12;19.08;;;8.27;;
59066;SDS011;44854;50.838;4.438;2024-01-30T08:53:38;18.92;;;9.48;;
59066;SDS011;44854;50.838;4.438;2024-01-30T08:56:05;17.60;;;8.60;;
59066;SDS011;44854;50.838;4.438;2024-01-30T08:58:31;17.13;;;9.00;;
59066;SDS011;44854;50.838;4.438;2024-01-30T09:00:57;19.20;;;8.57;;
59066;SDS011;44854;50.838;4.438;2024-01-30T09:03:23;16.05;;;9.00;;
59066;SDS011;44854;50.838;4.438;2024-01-30T09:05:51;16.00;;;8.20;;
59066;SDS011;44854;50.838;4.438;2024-01-30T09:08:16;17.02;;;8.05;;
59066;SDS011;44854;50.838;4.438;2024-01-30T09:10:42;18.73;;;8.00;;
59066;SDS011;44854;50.838;4.438;2024-01-30T09:13:09;14.68;;;8.15;;
59066;SDS011;44854;50.838;4.438;2024-01-30T09:15:35;15.52;;;8.02;;
59066;SDS011;44854;50.838;4.438;2024-01-30T09:18:00;22.17;;;9.30;;
59066;SDS011;44854;50.838;4.438;2024-01-30T09:20:26;16.00;;;8.63;;
59066;SDS011;44854;50.838;4.438;2024-01-30T09:22:51;27.58;;;9.00;;
59066;SDS011;44854;50.838;4.438;2024-01-30T09:25:17;17.35;;;8.82;;
59066;SDS011;44854;50.838;4.438;2024-01-30T09:27:43;17.40;;;8.68;;
59066;SDS011;44854;50.838;4.438;2024-01-30T09:30:09;28.52;;;8.98;;
59066;SDS011;44854;50.838;4.438;2024-01-30T09:32:36;18.10;;;8.40;;
59066;SDS011;44854;50.838;4.438;2024-01-30T09:35:03;21.20;;;8.82;;
59066;SDS011;44854;50.838;4.438;2024-01-30T09:37:29;25.95;;;8.73;;
59066;SDS011;44854;50.838;4.438;2024-01-30T09:39:55;17.35;;;9.15;;
59066;SDS011;44854;50.838;4.438;2024-01-30T09:42:26;20.65;;;10.07;;
59066;SDS011;44854;50.838;4.438;2024-01-30T09:44:58;33.75;;;10.20;;
59066;SDS011;44854;50.838;4.438;2024-01-30T09:47:23;21.88;;;10.60;;
59066;SDS011;44854;50.838;4.438;2024-01-30T09:49:49;17.73;;;9.10;;
59066;SDS011;44854;50.838;4.438;2024-01-30T09:52:16;18.00;;;10.60;;
59066;SDS011;44854;50.838;4.438;2024-01-30T09:54:43;21.98;;;10.02;;
59066;SDS011;44854;50.838;4.438;2024-01-30T09:57:11;20.58;;;10.63;;
59066;SDS011;44854;50.838;4.438;2024-01-30T09:59:36;23.90;;;10.98;;
59066;SDS011;44854;50.838;4.438;2024-01-30T10:02:02;23.33;;;11.80;;
59066;SDS011;44854;50.838;4.438;2024-01-30T10:04:29;22.85;;;11.30;;
59066;SDS011;44854;50.838;4.438;2024-01-30T10:06:55;31.92;;;13.32;;
59066;SDS011;44854;50.838;4.438;2024-01-30T10:09:23;20.85;;;11.85;;
59066;SDS011;44854;50.838;4.438;2024-01-30T10:11:50;25.08;;;11.57;;
59066;SDS011;44854;50.838;4.438;2024-01-30T10:14:16;22.33;;;12.02;;
59066;SDS011;44854;50.838;4.438;2024-01-30T10:16:42;20.60;;;11.93;;
59066;SDS011;44854;50.838;4.438;2024-01-30T10:19:10;27.98;;;12.45;;
59066;SDS011;44854;50.838;4.438;2024-01-30T10:21:36;22.48;;;12.50;;
59066;SDS011;44854;50.838;4.438;2024-01-30T10:24:02;22.77;;;11.57;;
59066;SDS011;44854;50.838;4.438;2024-01-30T10:26:27;32.50;;;11.80;;
59066;SDS011;44854;50.838;4.438;2024-01-30T10:28:54;19.13;;;12.07;;
59066;SDS011;44854;50.838;4.438;2024-01-30T10:31:20;28.65;;;11.77;;
59066;SDS011;44854;50.838;4.438;2024-01-30T10:33:46;23.40;;;12.23;;
59066;SDS011;44854;50.838;4.438;2024-01-30T10:36:13;17.27;;;10.45;;
59066;SDS011;44854;50.838;4.438;2024-01-30T10:38:42;25.55;;;12.02;;
59066;SDS011;44854;50.838;4.438;2024-01-30T10:41:09;23.38;;;11.40;;
59066;SDS011;44854;50.838;4.438;2024-01-30T10:43:40;22.50;;;10.82;;
59066;SDS011;44854;50.838;4.438;2024-01-30T10:46:19;24.15;;;10.27;;
59066;SDS011;44854;50.838;4.438;2024-01-30T10:48:50;21.83;;;10.82;;
59066;SDS011;44854;50.838;4.438;2024-01-30T10:51:22;17.27;;;10.05;;
59066;SDS011;44854;50.838;4.438;2024-01-30T10:53:48;17.35;;;10.57;;
59066;SDS011;44854;50.838;4.438;2024-01-30T10:56:16;13.13;;;8.43;;
59066;SDS011;44854;50.838;4.438;2024-01-30T10:58:42;18.83;;;9.25;;
59066;SDS011;44854;50.838;4.438;2024-01-30T11:01:07;23.75;;;9.13;;
59066;SDS011;44854;50.838;4.438;2024-01-30T11:03:34;18.80;;;8.70;;
59066;SDS011;44854;50.838;4.438;2024-01-30T11:06:01;23.03;;;9.00;;
59066;SDS011;44854;50.838;4.438;2024-01-30T11:08:28;14.77;;;8.73;;
59066;SDS011;44854;50.838;4.438;2024-01-30T11:10:56;21.83;;;8.73;;
59066;SDS011;44854;50.838;4.438;2024-01-30T11:13:27;15.63;;;7.15;;
59066;SDS011;44854;50.838;4.438;2024-01-30T11:15:54;13.20;;;7.70;;
59066;SDS011;44854;50.838;4.438;2024-01-30T11:18:24;17.92;;;7.13;;
59066;SDS011;44854;50.838;4.438;2024-01-30T11:20:56;13.75;;;5.95;;
59066;SDS011;44854;50.838;4.438;2024-01-30T11:23:23;15.75;;;5.72;;
59066;SDS011;44854;50.838;4.438;2024-01-30T11:25:52;23.48;;;5.97;;
59066;SDS011;44854;50.838;4.438;2024-01-30T11:28:18;13.10;;;5.78;;
59066;SDS011;44854;50.838;4.438;2024-01-30T11:30:44;15.52;;;5.63;;
59066;SDS011;44854;50.838;4.438;2024-01-30T11:33:12;10.43;;;4.22;;
59066;SDS011;44854;50.838;4.438;2024-01-30T11:35:39;12.20;;;5.87;;
59066;SDS011;44854;50.838;4.438;2024-01-30T11:38:06;13.85;;;3.58;;
59066;SDS011;44854;50.838;4.438;2024-01-30T11:40:36;12.38;;;3.13;;
59066;SDS011;44854;50.838;4.438;2024-01-30T11:43:05;10.35;;;2.67;;
59066;SDS011;44854;50.838;4.438;2024-01-30T11:45:32;11.48;;;2.78;;
59066;SDS011;44854;50.838;4.438;2024-01-30T11:47:58;8.27;;;3.10;;
59066;SDS011;44854;50.838;4.438;2024-01-30T11:50:31;5.95;;;2.03;;
59066;SDS011;44854;50.838;4.438;2024-01-30T11:52:59;9.63;;;2.60;;
59066;SDS011;44854;50.838;4.438;2024-01-30T11:55:25;5.15;;;2.13;;
59066;SDS011;44854;50.838;4.438;2024-01-30T11:57:51;6.85;;;2.58;;
59066;SDS011;44854;50.838;4.438;2024-01-30T12:00:19;9.88;;;2.00;;
59066;SDS011;44854;50.838;4.438;2024-01-30T12:02:49;12.00;;;1.50;;
59066;SDS011;44854;50.838;4.438;2024-01-30T12:05:27;5.38;;;1.80;;
59066;SDS011;44854;50.838;4.438;2024-01-30T12:07:55;7.30;;;1.50;;
59066;SDS011;44854;50.838;4.438;2024-01-30T12:10:23;7.72;;;1.27;;
59066;SDS011;44854;50.838;4.438;2024-01-30T12:12:50;4.57;;;1.30;;
59066;SDS011;44854;50.838;4.438;2024-01-30T12:15:16;3.28;;;1.00;;
59066;SDS011;44854;50.838;4.438;2024-01-30T12:17:43;6.65;;;1.10;;
59066;SDS011;44854;50.838;4.438;2024-01-30T12:20:09;7.43;;;1.27;;
59066;SDS011;44854;50.838;4.438;2024-01-30T12:22:40;3.45;;;1.42;;
59066;SDS011;44854;50.838;4.438;2024-01-30T12:25:08;9.35;;;1.50;;
59066;SDS011;44854;50.838;4.438;2024-01-30T12:27:34;6.93;;;2.20;;
59066;SDS011;44854;50.838;4.438;2024-01-30T12:30:00;7.47;;;1.63;;
59066;SDS011;44854;50.838;4.438;2024-01-30T12:32:25;5.68;;;1.10;;
59066;SDS011;44854;50.838;4.438;2024-01-30T12:34:55;3.45;;;1.10;;
59066;SDS011;44854;50.838;4.438;2024-01-30T12:37:21;8.80;;;1.67;;
59066;SDS011;44854;50.838;4.438;2024-01-30T12:42:16;4.07;;;0.88;;
59066;SDS011;44854;50.838;4.438;2024-01-30T12:44:42;6.18;;;1.05;;
59066;SDS011;44854;50.838;4.438;2024-01-30T12:47:08;6.50;;;1.20;;
59066;SDS011;44854;50.838;4.438;2024-01-30T12:49:35;8.10;;;1.17;;
59066;SDS011;44854;50.838;4.438;2024-01-30T12:52:01;9.13;;;1.98;;
59066;SDS011;44854;50.838;4.438;2024-01-30T12:54:26;2.70;;;1.05;;
59066;SDS011;44854;50.838;4.438;2024-01-30T12:56:52;7.75;;;0.80;;
59066;SDS011;44854;50.838;4.438;2024-01-30T12:59:18;5.18;;;2.10;;
59066;SDS011;44854;50.838;4.438;2024-01-30T13:01:44;5.35;;;1.10;;
59066;SDS011;44854;50.838;4.438;2024-01-30T13:04:11;7.13;;;1.10;;
59066;SDS011;44854;50.838;4.438;2024-01-30T13:06:36;4.88;;;1.10;;
59066;SDS011;44854;50.838;4.438;2024-01-30T13:09:02;5.30;;;1.52;;
59066;SDS011;44854;50.838;4.438;2024-01-30T13:11:28;4.15;;;1.10;;
59066;SDS011;44854;50.838;4.438;2024-01-30T13:13:54;5.35;;;1.20;;
59066;SDS011;44854;50.838;4.438;2024-01-30T13:16:19;3.70;;;1.35;;
59066;SDS011;44854;50.838;4.438;2024-01-30T13:18:45;4.60;;;1.30;;
59066;SDS011;44854;50.838;4.438;2024-01-30T13:21:10;7.93;;;1.25;;
59066;SDS011;44854;50.838;4.438;2024-01-30T13:23:36;6.63;;;1.10;;
59066;SDS011;44854;50.838;4.438;2024-01-30T13:26:02;12.65;;;1.42;;
59066;SDS011;44854;50.838;4.438;2024-01-30T13:28:28;2.92;;;1.10;;
59066;SDS011;44854;50.838;4.438;2024-01-30T13:30:53;10.32;;;1.80;;
59066;SDS011;44854;50.838;4.438;2024-01-30T13:33:19;6.72;;;1.45;;
59066;SDS011;44854;50.838;4.438;2024-01-30T13:35:44;8.27;;;1.35;;
59066;SDS011;44854;50.838;4.438;2024-01-30T13:38:11;8.10;;;1.38;;
59066;SDS011;44854;50.838;4.438;2024-01-30T13:40:36;8.40;;;1.45;;
59066;SDS011;44854;50.838;4.438;2024-01-30T13:43:02;9.48;;;2.08;;
59066;SDS011;44854;50.838;4.438;2024-01-30T13:45:28;8.70;;;1.80;;
59066;SDS011;44854;50.838;4.438;2024-01-30T13:47:53;5.40;;;1.23;;
59066;SDS011;44854;50.838;4.438;2024-01-30T13:50:19;6.18;;;1.58;;
59066;SDS011;44854;50.838;4.438;2024-01-30T13:52:45;13.65;;;2.25;;
59066;SDS011;44854;50.838;4.438;2024-01-30T13:55:11;11.38;;;1.60;;
59066;SDS011;44854;50.838;4.438;2024-01-30T13:57:36;10.38;;;1.35;;
59066;SDS011;44854;50.838;4.438;2024-01-30T14:00:03;9.27;;;1.40;;
59066;SDS011;44854;50.838;4.438;2024-01-30T14:02:32;6.40;;;1.80;;
59066;SDS011;44854;50.838;4.438;2024-01-30T14:04:58;4.53;;;1.25;;
59066;SDS011;44854;50.838;4.438;2024-01-30T14:07:23;6.82;;;1.45;;
59066;SDS011;44854;50.838;4.438;2024-01-30T14:09:51;8.02;;;1.75;;
59066;SDS011;44854;50.838;4.438;2024-01-30T14:12:16;4.35;;;1.25;;
59066;SDS011;44854;50.838;4.438;2024-01-30T14:14:42;6.43;;;1.90;;
59066;SDS011;44854;50.838;4.438;2024-01-30T14:17:07;8.57;;;1.63;;
59066;SDS011;44854;50.838;4.438;2024-01-30T14:19:34;11.43;;;1.63;;
59066;SDS011;44854;50.838;4.438;2024-01-30T14:22:00;3.90;;;1.60;;
59066;SDS011;44854;50.838;4.438;2024-01-30T14:24:26;13.43;;;2.78;;
59066;SDS011;44854;50.838;4.438;2024-01-30T14:26:52;9.10;;;1.77;;
59066;SDS011;44854;50.838;4.438;2024-01-30T14:29:18;5.60;;;1.45;;
59066;SDS011;44854;50.838;4.438;2024-01-30T14:31:44;8.55;;;1.98;;
59066;SDS011;44854;50.838;4.438;2024-01-30T14:34:10;5.30;;;1.13;;
59066;SDS011;44854;50.838;4.438;2024-01-30T14:36:38;9.27;;;1.83;;
59066;SDS011;44854;50.838;4.438;2024-01-30T14:39:04;11.85;;;1.60;;
59066;SDS011;44854;50.838;4.438;2024-01-30T14:41:31;7.00;;;1.95;;
59066;SDS011;44854;50.838;4.438;2024-01-30T14:43:57;4.70;;;1.27;;
59066;SDS011;44854;50.838;4.438;2024-01-30T14:46:23;5.68;;;1.45;;